ANA257 RJTT-RJFF
Flight info
| Callsign | ANA257 |
|---|---|
| Flight time | N/A |
| Altitude | 40000 |
| Route | TIARA GUSRO Y20 SUGAL/N0484F430 Y20 KIRIN |
| Aircraft | B788/H-SDE1E2E3FGHIJ2J3J4J5M1RWXY/LB1D1 |
Departure
| Time | N/A |
|---|---|
| Airport | Tokyo Haneda International Airport (RJTT) |
Arrival
| Time | 2026-05-03 20:42 |
|---|---|
| Airport | Fukuoka Airport (RJFF) |
| Time | Latitude | Longitude | Altitude | Speed | Heading |
|---|---|---|---|---|---|
| 2026-05-03 20:15 | 34.03670 | 130.59454 | 15655 ft | 299 kts | 248° |
| 2026-05-03 20:15 | 34.02859 | 130.57249 | 15550 ft | 276 kts | 246° |
| 2026-05-03 20:15 | 34.02080 | 130.55259 | 15456 ft | 255 kts | 246° |
| 2026-05-03 20:15 | 34.01366 | 130.53389 | 15366 ft | 236 kts | 246° |
| 2026-05-03 20:16 | 34.00707 | 130.51616 | 15270 ft | 231 kts | 247° |
| 2026-05-03 20:16 | 34.00031 | 130.49815 | 15048 ft | 240 kts | 245° |
| 2026-05-03 20:16 | 33.99171 | 130.48126 | 14739 ft | 234 kts | 237° |
| 2026-05-03 20:16 | 33.98156 | 130.46566 | 14443 ft | 240 kts | 237° |
| 2026-05-03 20:17 | 33.97128 | 130.44973 | 14138 ft | 241 kts | 237° |
| 2026-05-03 20:17 | 33.96109 | 130.43403 | 13831 ft | 237 kts | 237° |
| 2026-05-03 20:17 | 33.95099 | 130.41843 | 13527 ft | 241 kts | 237° |
| 2026-05-03 20:17 | 33.94214 | 130.40150 | 13195 ft | 239 kts | 246° |
| 2026-05-03 20:18 | 33.93669 | 130.38261 | 12978 ft | 238 kts | 257° |
| 2026-05-03 20:18 | 33.93478 | 130.36291 | 12992 ft | 239 kts | 266° |
| 2026-05-03 20:18 | 33.93554 | 130.34925 | 12994 ft | 244 kts | 272° |
| 2026-05-03 20:18 | 33.93815 | 130.32238 | 13000 ft | 244 kts | 272° |
| 2026-05-03 20:19 | 33.94009 | 130.30205 | 13001 ft | 244 kts | 272° |
| 2026-05-03 20:19 | 33.94204 | 130.28225 | 12988 ft | 229 kts | 272° |
| 2026-05-03 20:19 | 33.94383 | 130.26348 | 12985 ft | 222 kts | 270° |
| 2026-05-03 20:19 | 33.94356 | 130.24516 | 12981 ft | 218 kts | 265° |
| 2026-05-03 20:20 | 33.94316 | 130.22687 | 12986 ft | 218 kts | 265° |
| 2026-05-03 20:20 | 33.94282 | 130.20865 | 12984 ft | 218 kts | 265° |
| 2026-05-03 20:20 | 33.94242 | 130.19041 | 12986 ft | 218 kts | 265° |
| 2026-05-03 20:20 | 33.94198 | 130.17211 | 12985 ft | 219 kts | 265° |
| 2026-05-03 20:21 | 33.94144 | 130.15400 | 12987 ft | 218 kts | 263° |
| 2026-05-03 20:21 | 33.93809 | 130.13626 | 12994 ft | 218 kts | 251° |
| 2026-05-03 20:21 | 33.93197 | 130.11953 | 12995 ft | 219 kts | 248° |
| 2026-05-03 20:21 | 33.92575 | 130.10281 | 12999 ft | 218 kts | 248° |
| 2026-05-03 20:22 | 33.91955 | 130.08606 | 12999 ft | 218 kts | 248° |
| 2026-05-03 20:22 | 33.90843 | 130.05634 | 12998 ft | 219 kts | 248° |
| 2026-05-03 20:22 | 33.90140 | 130.04008 | 12998 ft | 221 kts | 240° |
| 2026-05-03 20:22 | 33.89115 | 130.02602 | 12996 ft | 227 kts | 229° |
| 2026-05-03 20:23 | 33.87787 | 130.01516 | 12999 ft | 236 kts | 216° |
| 2026-05-03 20:23 | 33.86206 | 130.00858 | 13000 ft | 248 kts | 203° |
| 2026-05-03 20:23 | 33.84432 | 130.00737 | 13001 ft | 264 kts | 187° |
| 2026-05-03 20:23 | 33.83835 | 130.00835 | 13006 ft | 271 kts | 182° |
| 2026-05-03 20:24 | 33.81413 | 130.02057 | 13011 ft | 299 kts | 156° |
| 2026-05-03 20:24 | 33.78364 | 130.06485 | 13012 ft | 320 kts | 135° |
| 2026-05-03 20:24 | 33.77088 | 130.08682 | 13014 ft | 319 kts | 135° |
| 2026-05-03 20:25 | 33.75801 | 130.10852 | 13010 ft | 319 kts | 136° |
| 2026-05-03 20:25 | 33.74506 | 130.13022 | 13010 ft | 320 kts | 136° |
| 2026-05-03 20:25 | 33.73209 | 130.15210 | 13012 ft | 320 kts | 135° |
| 2026-05-03 20:26 | 33.72048 | 130.17179 | 13011 ft | 320 kts | 136° |
| 2026-05-03 20:26 | 33.70757 | 130.19350 | 13011 ft | 319 kts | 136° |
| 2026-05-03 20:26 | 33.69445 | 130.21286 | 12992 ft | 306 kts | 151° |
| 2026-05-03 20:26 | 33.67769 | 130.22765 | 13001 ft | 298 kts | 158° |
| 2026-05-03 20:27 | 33.66078 | 130.24194 | 13002 ft | 297 kts | 158° |
| 2026-05-03 20:27 | 33.64382 | 130.25623 | 13000 ft | 298 kts | 158° |
| 2026-05-03 20:27 | 33.62690 | 130.27055 | 13001 ft | 298 kts | 158° |
| 2026-05-03 20:27 | 33.61582 | 130.27997 | 12839 ft | 293 kts | 158° |
| 2026-05-03 20:28 | 33.60736 | 130.28718 | 12706 ft | 290 kts | 158° |
| 2026-05-03 20:28 | 33.59092 | 130.30108 | 12417 ft | 282 kts | 158° |
| 2026-05-03 20:28 | 33.57553 | 130.31424 | 12097 ft | 263 kts | 158° |
| 2026-05-03 20:29 | 33.56097 | 130.32644 | 11804 ft | 246 kts | 161° |
| 2026-05-03 20:29 | 33.54677 | 130.33704 | 11517 ft | 235 kts | 161° |
| 2026-05-03 20:29 | 33.53262 | 130.34792 | 11246 ft | 252 kts | 160° |
| 2026-05-03 20:29 | 33.52261 | 130.35560 | 11058 ft | 261 kts | 159° |
| 2026-05-03 20:30 | 33.50220 | 130.37154 | 10660 ft | 263 kts | 158° |
| 2026-05-03 20:30 | 33.48697 | 130.38338 | 10345 ft | 256 kts | 158° |
| 2026-05-03 20:30 | 33.47704 | 130.39103 | 10165 ft | 257 kts | 158° |
| 2026-05-03 20:31 | 33.46813 | 130.39783 | 9971 ft | 258 kts | 158° |
| 2026-05-03 20:31 | 33.45309 | 130.40940 | 9692 ft | 257 kts | 157° |
| 2026-05-03 20:31 | 33.43799 | 130.42100 | 9381 ft | 259 kts | 157° |
| 2026-05-03 20:31 | 33.42304 | 130.43258 | 9067 ft | 250 kts | 156° |
| 2026-05-03 20:32 | 33.40843 | 130.44389 | 8768 ft | 255 kts | 156° |
| 2026-05-03 20:32 | 33.39347 | 130.45534 | 8472 ft | 256 kts | 156° |
| 2026-05-03 20:32 | 33.37863 | 130.46677 | 8160 ft | 247 kts | 156° |
| 2026-05-03 20:32 | 33.36453 | 130.47772 | 7885 ft | 235 kts | 156° |
| 2026-05-03 20:33 | 33.35062 | 130.48833 | 7623 ft | 240 kts | 156° |
| 2026-05-03 20:33 | 33.33645 | 130.49913 | 7345 ft | 242 kts | 156° |
| 2026-05-03 20:33 | 33.32231 | 130.51001 | 7068 ft | 241 kts | 155° |
| 2026-05-03 20:33 | 33.30874 | 130.52194 | 6890 ft | 248 kts | 142° |
| 2026-05-03 20:34 | 33.30064 | 130.53971 | 6688 ft | 239 kts | 108° |
| 2026-05-03 20:34 | 33.30025 | 130.55963 | 6480 ft | 244 kts | 76° |
| 2026-05-03 20:34 | 33.30695 | 130.57788 | 6188 ft | 234 kts | 54° |
| 2026-05-03 20:34 | 33.31514 | 130.59424 | 5938 ft | 228 kts | 52° |
| 2026-05-03 20:35 | 33.32552 | 130.60760 | 5577 ft | 211 kts | 24° |
| 2026-05-03 20:35 | 33.33843 | 130.61264 | 5342 ft | 184 kts | 355° |
| 2026-05-03 20:35 | 33.35053 | 130.61082 | 5106 ft | 169 kts | 332° |
| 2026-05-03 20:35 | 33.36052 | 130.60457 | 4917 ft | 163 kts | 320° |
| 2026-05-03 20:36 | 33.37030 | 130.59766 | 4683 ft | 163 kts | 320° |
| 2026-05-03 20:36 | 33.38014 | 130.59094 | 4469 ft | 163 kts | 321° |
| 2026-05-03 20:36 | 33.38996 | 130.58424 | 4256 ft | 162 kts | 321° |
| 2026-05-03 20:36 | 33.39983 | 130.57747 | 4028 ft | 163 kts | 321° |
| 2026-05-03 20:37 | 33.40971 | 130.57080 | 3818 ft | 163 kts | 321° |
| 2026-05-03 20:37 | 33.41952 | 130.56418 | 3591 ft | 161 kts | 321° |
| 2026-05-03 20:37 | 33.42925 | 130.55755 | 3368 ft | 161 kts | 321° |
| 2026-05-03 20:37 | 33.43848 | 130.55131 | 3155 ft | 145 kts | 321° |
| 2026-05-03 20:38 | 33.44736 | 130.54526 | 2957 ft | 147 kts | 321° |
| 2026-05-03 20:38 | 33.45613 | 130.53925 | 2762 ft | 145 kts | 321° |
| 2026-05-03 20:38 | 33.46488 | 130.53328 | 2536 ft | 146 kts | 322° |
| 2026-05-03 20:38 | 33.47367 | 130.52735 | 2344 ft | 145 kts | 322° |
| 2026-05-03 20:39 | 33.48244 | 130.52138 | 2142 ft | 145 kts | 322° |
| 2026-05-03 20:39 | 33.49114 | 130.51540 | 1944 ft | 144 kts | 323° |
| 2026-05-03 20:39 | 33.49986 | 130.50948 | 1743 ft | 145 kts | 322° |
| 2026-05-03 20:39 | 33.50849 | 130.50359 | 1553 ft | 138 kts | 322° |
| 2026-05-03 20:40 | 33.51395 | 130.49987 | 1426 ft | 134 kts | 323° |
| 2026-05-03 20:40 | 33.52520 | 130.49223 | 1169 ft | 137 kts | 322° |
| 2026-05-03 20:40 | 33.53062 | 130.48842 | 1054 ft | 140 kts | 322° |
| 2026-05-03 20:40 | 33.54184 | 130.48092 | 802 ft | 137 kts | 326° |
| 2026-05-03 20:41 | 33.55042 | 130.47495 | 634 ft | 139 kts | 323° |
| 2026-05-03 20:41 | 33.55872 | 130.46926 | 425 ft | 138 kts | 324° |
| 2026-05-03 20:41 | 33.56708 | 130.46353 | 249 ft | 143 kts | 326° |
| 2026-05-03 20:41 | 33.57583 | 130.45758 | 71 ft | 142 kts | 326° |
| 2026-05-03 20:42 | 33.58325 | 130.45243 | 39 ft | 91 kts | 330° |
| 2026-05-03 20:42 | 33.58609 | 130.45056 | 40 ft | 51 kts | 331° |
| 2026-05-03 20:42 | 33.58899 | 130.44852 | 36 ft | 24 kts | 328° |
| 2026-05-03 20:42 | 33.59115 | 130.44759 | 33 ft | 33 kts | 354° |
| 2026-05-03 20:43 | 33.59314 | 130.44767 | 33 ft | 31 kts | 358° |
| 2026-05-03 20:43 | 33.59477 | 130.44694 | 32 ft | 22 kts | 327° |
| 2026-05-03 20:43 | 33.59644 | 130.44575 | 31 ft | 29 kts | 330° |
| 2026-05-03 20:43 | 33.59823 | 130.44488 | 30 ft | 15 kts | 353° |
| 2026-05-03 20:44 | 33.59870 | 130.44520 | 29 ft | 10 kts | 53° |
| 2026-05-03 20:44 | 33.59894 | 130.44595 | 30 ft | 11 kts | 66° |
| 2026-05-03 20:44 | 33.59899 | 130.44606 | 30 ft | 0 kts | 63° |